Time;durP1;ratioP1;P1;durP2;ratioP2;P2;SDS_P1;SDS_P2;PMS_P1;PMS_P2;Temp;Humidity;BMP_temperature;BMP_pressure;BME280_temperature;BME280_humidity;BME280_pressure;Samples;Min_cycle;Max_cycle;Signal;HPM_P1;HPM_P2
2022/01/10 00:01:06;;;;;;;4.15;3.95;;;1.50;99.90;;;;;;5070081;28;20275;-80
2022/01/10 00:03:33;;;;;;;3.78;3.58;;;1.50;99.90;;;;;;5064806;28;20725;-80
2022/01/10 00:06:00;;;;;;;4.32;4.03;;;1.40;99.90;;;;;;5061667;28;20222;-80
2022/01/10 00:08:27;;;;;;;3.70;3.50;;;1.40;99.90;;;;;;5062685;28;20202;-80
2022/01/10 00:10:54;;;;;;;3.70;3.50;;;1.50;99.90;;;;;;5065371;28;20267;-80
2022/01/10 00:13:22;;;;;;;4.07;3.85;;;1.40;99.90;;;;;;5063101;28;20268;-80
2022/01/10 00:15:50;;;;;;;4.60;4.30;;;1.40;99.90;;;;;;5057987;28;20225;-80
2022/01/10 00:18:17;;;;;;;3.65;3.45;;;1.40;99.90;;;;;;5063782;28;20203;-80
2022/01/10 00:20:44;;;;;;;3.80;3.60;;;1.40;99.90;;;;;;5057146;28;20234;-81
2022/01/10 00:23:11;;;;;;;3.88;3.67;;;1.40;99.90;;;;;;5059224;28;20282;-80
2022/01/10 00:25:39;;;;;;;3.58;3.38;;;1.40;99.90;;;;;;5056441;28;20687;-80
2022/01/10 00:28:06;;;;;;;4.10;3.88;;;1.40;99.90;;;;;;5066023;28;20199;-80
2022/01/10 00:30:33;;;;;;;3.90;3.70;;;1.40;99.90;;;;;;5058580;28;20284;-80
2022/01/10 00:33:02;;;;;;;3.72;3.50;;;1.40;99.90;;;;;;5062365;28;20195;-81
2022/01/10 00:35:29;;;;;;;3.90;3.70;;;1.40;99.90;;;;;;5059661;28;20263;-80
2022/01/10 00:37:57;;;;;;;3.80;3.60;;;1.40;99.90;;;;;;5063789;28;20669;-81
2022/01/10 00:40:24;;;;;;;3.75;3.55;;;1.40;99.90;;;;;;5058482;28;20191;-80
2022/01/10 00:42:55;;;;;;;3.72;3.53;;;1.40;99.90;;;;;;5061261;28;20244;-81
2022/01/10 00:45:26;;;;;;;3.90;3.70;;;1.40;99.90;;;;;;5060404;28;20284;-81
2022/01/10 00:47:54;;;;;;;3.90;3.70;;;1.40;99.90;;;;;;5061510;28;20632;-81
2022/01/10 00:50:24;;;;;;;3.67;3.47;;;1.40;99.90;;;;;;5058490;28;20191;-79
2022/01/10 00:52:51;;;;;;;3.80;3.60;;;1.40;99.90;;;;;;5061835;28;20883;-81
2022/01/10 00:55:19;;;;;;;4.20;3.90;;;1.40;99.90;;;;;;5060267;28;20273;-81
2022/01/10 00:57:46;;;;;;;3.90;3.70;;;1.40;99.90;;;;;;5061522;28;20226;-81
2022/01/10 01:00:16;;;;;;;3.90;3.70;;;1.40;99.90;;;;;;5060080;28;20855;-83
2022/01/10 01:02:43;;;;;;;4.28;3.97;;;1.40;99.90;;;;;;5063901;28;20217;-80
2022/01/10 01:05:13;;;;;;;4.20;3.92;;;1.40;99.90;;;;;;5064085;28;20253;-82
2022/01/10 01:07:41;;;;;;;4.45;4.15;;;1.30;99.90;;;;;;5060173;28;20211;-81
2022/01/10 01:10:35;;;;;;;4.88;4.55;;;1.20;99.90;;;;;;5063908;28;20195;-79
2022/01/10 01:13:07;;;;;;;5.30;4.80;;;1.10;99.90;;;;;;5055838;28;20218;-80
2022/01/10 01:15:45;;;;;;;4.32;4.03;;;1.10;99.90;;;;;;5063881;28;20198;-79
2022/01/10 01:18:19;;;;;;;4.20;3.90;;;1.10;99.90;;;;;;5063741;28;20711;-79
2022/01/10 01:24:00;;;;;;;3.67;3.47;;;1.10;99.90;;;;;;5063482;28;20199;-81
2022/01/10 01:26:20;;;;;;;3.90;3.60;;;1.20;99.90;;;;;;5064066;28;20205;-79
2022/01/10 01:28:47;;;;;;;4.07;3.88;;;1.30;99.90;;;;;;5063647;28;20222;-80
2022/01/10 01:31:15;;;;;;;4.13;3.88;;;1.30;99.90;;;;;;5059721;28;20190;-80
2022/01/10 01:33:42;;;;;;;4.03;3.83;;;1.30;99.90;;;;;;5063477;28;20225;-79
2022/01/10 01:36:09;;;;;;;3.70;3.50;;;1.30;99.90;;;;;;5067134;28;20738;-79
2022/01/10 01:38:40;;;;;;;3.63;3.42;;;1.20;99.90;;;;;;5064764;28;20221;-82
2022/01/10 01:41:21;;;;;;;3.80;3.47;;;1.20;99.90;;;;;;5059139;28;20321;-80
2022/01/10 01:43:50;;;;;;;3.38;3.17;;;1.20;99.90;;;;;;5064129;28;20276;-81
2022/01/10 01:46:18;;;;;;;3.45;3.28;;;1.20;99.90;;;;;;5062724;28;20863;-81
2022/01/10 01:48:45;;;;;;;3.55;3.35;;;1.20;99.90;;;;;;5058396;28;20723;-80
2022/01/10 01:51:13;;;;;;;3.60;3.38;;;1.20;99.90;;;;;;5061138;28;20186;-81
2022/01/10 01:53:41;;;;;;;3.97;3.78;;;1.20;99.90;;;;;;5062230;28;20291;-81
2022/01/10 01:56:11;;;;;;;4.00;3.80;;;1.20;99.90;;;;;;5064188;28;20207;-81
2022/01/10 01:58:40;;;;;;;3.97;3.78;;;1.10;99.90;;;;;;5064105;28;20283;-81
2022/01/10 02:01:08;;;;;;;4.47;4.18;;;1.10;99.90;;;;;;5061626;28;20226;-80
2022/01/10 02:03:38;;;;;;;4.72;4.40;;;1.10;99.90;;;;;;5064595;28;20700;-79
2022/01/10 02:06:06;;;;;;;4.22;4.03;;;1.10;99.90;;;;;;5068258;28;20198;-80
2022/01/10 02:08:34;;;;;;;4.60;4.30;;;1.10;99.90;;;;;;5060396;28;20214;-80
2022/01/10 02:11:03;;;;;;;4.47;4.18;;;1.10;99.90;;;;;;5060935;28;20571;-79
2022/01/10 02:13:32;;;;;;;3.95;3.75;;;1.10;99.90;;;;;;5059964;28;20284;-79
2022/01/10 02:16:02;;;;;;;4.15;3.95;;;1.10;99.90;;;;;;5065801;28;20286;-79
2022/01/10 02:18:30;;;;;;;3.92;3.63;;;1.10;99.90;;;;;;5058358;28;20294;-79
2022/01/10 02:21:01;;;;;;;3.92;3.72;;;1.10;99.90;;;;;;5064015;28;20206;-79
2022/01/10 02:23:29;;;;;;;3.78;3.58;;;1.10;99.90;;;;;;5063664;28;20222;-81
2022/01/10 02:25:57;;;;;;;3.60;3.40;;;1.10;99.90;;;;;;5060298;28;20260;-79
2022/01/10 02:28:25;;;;;;;3.95;3.75;;;1.10;99.90;;;;;;5063491;28;20540;-79
2022/01/10 02:30:57;;;;;;;3.58;3.38;;;1.10;99.90;;;;;;5060735;28;20205;-79
2022/01/10 02:33:24;;;;;;;3.90;3.70;;;1.10;99.90;;;;;;5060926;28;20207;-79
2022/01/10 02:36:00;;;;;;;3.80;3.60;;;1.10;99.90;;;;;;5058294;28;20200;-79
2022/01/10 02:38:28;;;;;;;3.78;3.58;;;1.10;99.90;;;;;;5060862;28;20198;-81
2022/01/10 02:40:57;;;;;;;3.95;3.70;;;1.10;99.90;;;;;;5058547;28;20218;-81
2022/01/10 02:43:24;;;;;;;3.53;3.33;;;1.10;99.90;;;;;;5063229;28;20677;-81
2022/01/10 02:45:51;;;;;;;3.70;3.50;;;1.00;99.90;;;;;;5059826;28;21761;-81
2022/01/10 02:48:18;;;;;;;3.55;3.35;;;1.00;99.90;;;;;;5060149;28;20661;-81
2022/01/10 02:50:45;;;;;;;3.53;3.33;;;1.00;99.90;;;;;;5057781;28;20206;-81
2022/01/10 02:53:12;;;;;;;3.42;3.22;;;1.00;99.90;;;;;;5062141;28;20264;-81
2022/01/10 02:55:40;;;;;;;2.92;2.83;;;1.00;99.90;;;;;;5064427;28;20230;-81
2022/01/10 02:58:07;;;;;;;3.17;3.08;;;1.10;99.90;;;;;;5059811;28;20668;-80
2022/01/10 03:00:35;;;;;;;2.92;2.83;;;1.10;99.90;;;;;;5058251;28;20222;-81
2022/01/10 03:03:06;;;;;;;3.20;3.10;;;1.10;99.90;;;;;;5062446;28;20288;-82
2022/01/10 03:05:34;;;;;;;3.17;3.08;;;1.20;99.90;;;;;;5058974;28;20324;-82
2022/01/10 03:08:03;;;;;;;3.28;3.17;;;1.20;99.90;;;;;;5062067;28;20278;-80
2022/01/10 03:10:30;;;;;;;3.30;3.20;;;1.20;99.90;;;;;;5066851;28;20217;-80
2022/01/10 03:13:00;;;;;;;3.38;3.17;;;1.10;99.90;;;;;;5061971;28;20198;-81
2022/01/10 03:15:28;;;;;;;2.92;2.83;;;1.10;99.90;;;;;;5042932;28;20235;-81
2022/01/10 03:17:55;;;;;;;3.25;3.15;;;1.10;99.90;;;;;;5037298;28;20709;-81
2022/01/10 03:20:23;;;;;;;3.67;3.47;;;1.10;99.90;;;;;;5045008;28;20219;-81
2022/01/10 03:22:50;;;;;;;3.05;2.95;;;1.10;99.90;;;;;;5039714;28;20713;-80
2022/01/10 03:25:18;;;;;;;3.25;3.05;;;1.10;99.90;;;;;;5043404;28;20225;-81
2022/01/10 03:27:45;;;;;;;2.85;2.75;;;1.10;99.90;;;;;;5039092;28;20207;-81
2022/01/10 03:30:16;;;;;;;2.97;2.88;;;1.10;99.90;;;;;;5040000;28;20651;-80
2022/01/10 03:32:43;;;;;;;3.28;3.08;;;1.10;99.90;;;;;;5041739;28;21005;-81
2022/01/10 03:35:11;;;;;;;3.20;3.10;;;1.00;99.90;;;;;;5035323;28;20242;-80
2022/01/10 03:37:38;;;;;;;3.20;3.10;;;0.90;99.90;;;;;;5039689;28;20203;-81
2022/01/10 03:40:07;;;;;;;2.97;2.88;;;1.00;99.90;;;;;;5040931;28;20280;-79
2022/01/10 03:42:35;;;;;;;2.95;2.85;;;1.00;99.90;;;;;;5042009;28;20220;-81
2022/01/10 03:45:03;;;;;;;3.40;3.20;;;1.10;99.90;;;;;;5037093;28;20708;-79
2022/01/10 03:47:32;;;;;;;3.45;3.25;;;1.00;99.90;;;;;;5035371;28;20719;-81
2022/01/10 03:49:59;;;;;;;3.42;3.22;;;1.00;99.90;;;;;;5041754;28;20230;-80
2022/01/10 03:52:27;;;;;;;3.35;3.25;;;1.00;99.90;;;;;;5036845;28;20203;-81
2022/01/10 03:54:54;;;;;;;3.22;3.03;;;0.90;99.90;;;;;;5040741;28;20225;-81
2022/01/10 03:57:21;;;;;;;3.05;2.95;;;0.80;99.90;;;;;;5042889;28;20273;-81
2022/01/10 03:59:48;;;;;;;2.97;2.80;;;0.90;99.90;;;;;;5041082;28;20246;-81
2022/01/10 04:02:15;;;;;;;3.33;3.13;;;0.90;99.90;;;;;;5040138;28;20211;-80
2022/01/10 04:04:44;;;;;;;3.03;2.92;;;0.80;99.90;;;;;;5039997;28;20223;-79
2022/01/10 04:07:12;;;;;;;2.97;2.88;;;0.80;99.90;;;;;;5038287;28;20196;-80
2022/01/10 04:09:40;;;;;;;2.83;2.72;;;0.90;99.90;;;;;;5041485;28;20708;-81
2022/01/10 04:12:07;;;;;;;3.20;3.10;;;0.80;99.90;;;;;;5043412;28;20593;-79
2022/01/10 04:14:34;;;;;;;3.10;3.00;;;0.90;99.90;;;;;;5036827;28;20276;-81
2022/01/10 04:17:02;;;;;;;2.40;2.30;;;0.90;99.90;;;;;;5039987;28;20225;-81
2022/01/10 04:19:29;;;;;;;2.85;2.75;;;1.00;99.90;;;;;;5041412;28;20265;-81
2022/01/10 04:21:57;;;;;;;2.78;2.67;;;1.10;99.90;;;;;;5045210;28;20273;-81
2022/01/10 04:24:24;;;;;;;2.90;2.80;;;1.20;99.90;;;;;;5042356;28;20219;-81
2022/01/10 04:26:51;;;;;;;3.25;3.13;;;1.10;99.90;;;;;;5042624;28;20203;-81
2022/01/10 04:29:18;;;;;;;3.00;2.90;;;1.20;99.90;;;;;;5043674;28;20285;-81
2022/01/10 04:31:46;;;;;;;3.10;2.90;;;1.20;99.90;;;;;;5049465;28;20195;-82
2022/01/10 04:34:13;;;;;;;3.10;2.90;;;1.30;99.90;;;;;;5050973;28;20230;-80
2022/01/10 04:36:40;;;;;;;3.13;3.03;;;1.30;99.90;;;;;;5047329;28;20195;-80
2022/01/10 04:39:09;;;;;;;3.60;3.40;;;1.40;99.90;;;;;;5046846;28;20227;-80
2022/01/10 04:41:37;;;;;;;3.35;3.17;;;1.50;99.90;;;;;;5042662;28;20208;-80
2022/01/10 04:44:05;;;;;;;3.20;3.10;;;1.50;99.90;;;;;;5051206;28;20268;-81
2022/01/10 04:46:32;;;;;;;3.17;2.95;;;1.50;99.90;;;;;;5042125;28;20199;-80
2022/01/10 04:49:00;;;;;;;3.03;2.92;;;1.60;99.90;;;;;;5042104;28;20253;-80
2022/01/10 04:51:29;;;;;;;3.10;2.95;;;1.70;99.90;;;;;;5045657;28;20199;-80
2022/01/10 04:53:56;;;;;;;3.05;2.95;;;1.80;99.90;;;;;;5043784;28;20283;-79
2022/01/10 04:56:24;;;;;;;3.05;2.95;;;1.80;99.90;;;;;;5041985;28;20603;-80
2022/01/10 04:58:54;;;;;;;3.40;3.30;;;1.80;99.90;;;;;;5039730;28;20609;-80
2022/01/10 05:01:21;;;;;;;3.40;3.25;;;1.60;99.90;;;;;;5042069;28;20199;-81
2022/01/10 05:03:49;;;;;;;3.08;2.97;;;1.50;99.90;;;;;;5042040;28;20726;-80
2022/01/10 05:06:17;;;;;;;3.25;3.15;;;1.50;99.90;;;;;;5041975;28;20203;-81
2022/01/10 05:08:44;;;;;;;3.50;3.28;;;1.50;99.90;;;;;;5041176;28;20203;-80
2022/01/10 05:11:11;;;;;;;3.20;3.00;;;1.50;99.90;;;;;;5042436;28;20323;-81
2022/01/10 05:13:40;;;;;;;3.03;2.92;;;1.40;99.90;;;;;;5046509;28;20192;-81
2022/01/10 05:16:07;;;;;;;3.05;2.95;;;1.40;99.90;;;;;;5044885;28;20246;-80
2022/01/10 05:18:36;;;;;;;3.20;3.00;;;1.30;99.90;;;;;;5038533;28;20210;-80
2022/01/10 05:21:03;;;;;;;3.05;2.95;;;1.20;99.90;;;;;;5043880;28;20712;-80
2022/01/10 05:23:30;;;;;;;3.15;3.05;;;1.20;99.90;;;;;;5040065;28;20215;-80
2022/01/10 05:25:57;;;;;;;3.90;3.70;;;1.10;99.90;;;;;;5043302;28;20215;-79
2022/01/10 05:28:24;;;;;;;3.70;3.50;;;1.00;99.90;;;;;;5038823;28;20195;-80
2022/01/10 05:30:55;;;;;;;3.00;2.90;;;0.90;99.90;;;;;;5041792;28;20238;-80
2022/01/10 05:33:22;;;;;;;3.10;3.00;;;0.90;99.90;;;;;;5042705;28;20278;-80
2022/01/10 05:35:50;;;;;;;3.20;3.10;;;0.90;99.90;;;;;;5041851;28;20227;-81
2022/01/10 05:38:17;;;;;;;3.55;3.35;;;0.90;99.90;;;;;;5045813;28;20195;-80
2022/01/10 05:40:44;;;;;;;2.95;2.85;;;0.90;99.90;;;;;;5038004;28;20219;-80
2022/01/10 05:43:11;;;;;;;3.60;3.40;;;0.90;99.90;;;;;;5039767;28;20215;-80
2022/01/10 05:45:38;;;;;;;3.10;3.00;;;0.90;99.90;;;;;;5044863;28;20226;-80
2022/01/10 05:48:12;;;;;;;3.58;3.38;;;0.90;99.90;;;;;;5039806;28;20203;-80
2022/01/10 05:50:42;;;;;;;2.75;2.65;;;0.80;99.90;;;;;;5040903;28;20277;-80
2022/01/10 05:53:10;;;;;;;3.28;3.10;;;0.80;99.90;;;;;;5042548;28;20207;-80
2022/01/10 05:55:37;;;;;;;3.08;2.97;;;0.80;99.90;;;;;;5056061;28;20218;-79
2022/01/10 05:58:05;;;;;;;2.90;2.80;;;0.80;99.90;;;;;;5065267;28;20225;-80
2022/01/10 06:00:32;;;;;;;3.17;3.08;;;0.80;99.90;;;;;;5058190;28;21016;-80
2022/01/10 06:02:59;;;;;;;3.47;3.28;;;0.80;99.90;;;;;;5061873;28;20222;-81
2022/01/10 06:05:30;;;;;;;3.38;3.17;;;0.90;99.90;;;;;;5065227;28;20218;-81
2022/01/10 06:07:58;;;;;;;3.78;3.58;;;0.90;99.90;;;;;;5062756;28;20202;-79
2022/01/10 06:10:26;;;;;;;3.65;3.45;;;0.90;99.90;;;;;;5064423;28;20681;-80
2022/01/10 06:12:53;;;;;;;4.45;4.15;;;0.90;99.90;;;;;;5061008;28;20198;-80
2022/01/10 06:15:21;;;;;;;4.30;4.00;;;0.90;99.90;;;;;;5064504;28;20283;-79
2022/01/10 06:17:48;;;;;;;3.78;3.58;;;0.80;99.90;;;;;;5065087;28;20203;-80
2022/01/10 06:20:15;;;;;;;3.78;3.58;;;0.80;99.90;;;;;;5062608;28;20222;-80
2022/01/10 06:22:44;;;;;;;3.38;3.17;;;0.80;99.90;;;;;;5065823;28;20272;-81
2022/01/10 06:25:14;;;;;;;3.33;3.13;;;0.80;99.90;;;;;;5059374;28;20222;-81
2022/01/10 06:27:41;;;;;;;3.45;3.25;;;0.80;99.90;;;;;;5059833;28;20255;-79
2022/01/10 06:30:09;;;;;;;3.38;3.28;;;0.90;99.90;;;;;;5061316;28;20237;-79
2022/01/10 06:32:36;;;;;;;3.50;3.30;;;0.90;99.90;;;;;;5057530;28;20225;-81
2022/01/10 06:35:03;;;;;;;3.40;3.30;;;0.90;99.90;;;;;;5065376;28;20286;-79
2022/01/10 06:37:30;;;;;;;3.35;3.22;;;1.00;99.90;;;;;;5062976;28;20629;-80
2022/01/10 06:39:59;;;;;;;3.42;3.30;;;1.00;99.90;;;;;;5059594;28;20218;-78
2022/01/10 06:42:26;;;;;;;3.10;3.00;;;0.90;99.90;;;;;;5061937;28;20620;-81
2022/01/10 06:44:53;;;;;;;3.40;3.30;;;0.90;99.90;;;;;;5061366;28;20210;-77
2022/01/10 06:47:21;;;;;;;3.40;3.30;;;0.90;99.90;;;;;;5057805;28;20267;-78
2022/01/10 06:49:48;;;;;;;3.58;3.38;;;1.00;99.90;;;;;;5059767;28;20210;-79
2022/01/10 06:52:15;;;;;;;3.10;3.00;;;1.00;99.90;;;;;;5063793;28;20198;-78
2022/01/10 06:54:42;;;;;;;3.25;3.05;;;1.00;99.90;;;;;;5058573;28;20288;-80
2022/01/10 06:57:11;;;;;;;3.33;3.13;;;1.00;99.90;;;;;;5058558;28;20229;-78
2022/01/10 06:59:38;;;;;;;3.28;3.08;;;1.00;99.90;;;;;;5049567;28;20840;-80
2022/01/10 07:02:06;;;;;;;7.88;7.07;;;1.00;99.90;;;;;;5056107;28;20248;-78
2022/01/10 07:04:33;;;;;;;8.50;7.25;;;0.90;99.90;;;;;;5054134;28;20643;-78
2022/01/10 07:07:00;;;;;;;7.60;6.88;;;0.90;99.90;;;;;;5057315;28;20918;-78
2022/01/10 07:09:28;;;;;;;7.18;6.47;;;1.00;99.90;;;;;;5054527;28;20206;-79
2022/01/10 07:11:55;;;;;;;6.35;5.75;;;1.00;99.90;;;;;;5035643;28;20731;-78
2022/01/10 07:14:23;;;;;;;5.15;4.70;;;1.00;99.90;;;;;;5036742;28;20271;-79
2022/01/10 07:16:50;;;;;;;4.65;4.35;;;1.10;99.90;;;;;;5033401;28;20211;-79
2022/01/10 07:19:18;;;;;;;4.57;4.28;;;1.20;99.90;;;;;;5031445;28;20256;-80
2022/01/10 07:21:45;;;;;;;4.75;4.45;;;1.30;99.90;;;;;;5035308;28;20215;-80
2022/01/10 07:24:12;;;;;;;4.22;3.92;;;1.30;99.90;;;;;;5038379;28;20314;-78
2022/01/10 07:26:39;;;;;;;4.13;3.92;;;1.30;99.90;;;;;;5031998;28;20709;-79
2022/01/10 07:29:08;;;;;;;3.95;3.75;;;1.40;99.90;;;;;;5032584;28;20261;-81
2022/01/10 07:31:36;;;;;;;3.75;3.55;;;1.40;99.90;;;;;;5036812;28;20229;-79
2022/01/10 07:34:04;;;;;;;4.25;4.00;;;1.40;99.90;;;;;;5036115;28;20605;-78
2022/01/10 07:36:31;;;;;;;4.13;3.83;;;1.40;99.90;;;;;;5029624;28;20231;-78
2022/01/10 07:38:58;;;;;;;3.65;3.45;;;1.40;99.90;;;;;;5033761;28;20198;-78
2022/01/10 07:41:26;;;;;;;3.30;3.10;;;1.40;99.90;;;;;;5034944;28;20284;-79
2022/01/10 07:43:56;;;;;;;3.72;3.53;;;1.50;99.90;;;;;;5036865;28;20688;-78
2022/01/10 07:46:23;;;;;;;3.67;3.47;;;1.60;99.90;;;;;;5034188;28;20227;-78
2022/01/10 07:48:54;;;;;;;3.55;3.25;;;1.60;99.90;;;;;;5038987;28;20210;-79
2022/01/10 07:51:21;;;;;;;4.28;3.97;;;1.70;99.90;;;;;;5036028;28;20215;-78
2022/01/10 07:53:48;;;;;;;5.25;4.85;;;1.80;99.90;;;;;;5035864;28;20542;-79
2022/01/10 07:56:15;;;;;;;4.07;3.75;;;1.90;99.90;;;;;;5034755;28;20219;-81
2022/01/10 07:58:42;;;;;;;5.38;4.97;;;2.00;99.90;;;;;;5031856;28;20241;-78
2022/01/10 08:01:09;;;;;;;5.30;4.90;;;2.00;99.90;;;;;;5035081;28;20223;-78
2022/01/10 08:03:36;;;;;;;4.65;4.35;;;2.10;99.90;;;;;;5036543;28;20857;-79
2022/01/10 08:06:05;;;;;;;8.65;7.85;;;2.10;99.90;;;;;;5037875;28;20215;-78
2022/01/10 08:08:33;;;;;;;7.40;6.80;;;2.20;99.90;;;;;;5037568;28;20962;-78
2022/01/10 08:11:00;;;;;;;7.32;6.63;;;2.30;99.90;;;;;;5052293;28;20219;-81
2022/01/10 08:13:28;;;;;;;7.18;6.57;;;2.40;99.90;;;;;;5054040;28;20195;-81
2022/01/10 08:15:55;;;;;;;5.95;5.50;;;2.50;99.90;;;;;;5054418;28;20226;-81
2022/01/10 08:18:22;;;;;;;4.80;4.50;;;2.60;99.90;;;;;;5054792;28;20202;-81
2022/01/10 08:20:49;;;;;;;5.15;4.68;;;2.70;99.90;;;;;;5053694;28;20968;-81
2022/01/10 08:23:18;;;;;;;4.18;3.88;;;2.70;99.90;;;;;;5060119;28;20214;-81
2022/01/10 08:25:45;;;;;;;4.25;3.97;;;3.10;99.90;;;;;;5056686;28;20210;-81
2022/01/10 08:28:12;;;;;;;5.93;5.43;;;4.10;99.90;;;;;;5055075;28;20195;-81
2022/01/10 08:30:39;;;;;;;7.35;6.60;;;5.00;99.90;;;;;;5053650;28;20225;-81
2022/01/10 08:33:06;;;;;;;4.90;4.53;;;5.90;99.90;;;;;;5059742;28;20260;-81
2022/01/10 08:35:33;;;;;;;3.40;3.20;;;6.60;99.90;;;;;;5062873;28;20645;-79
2022/01/10 08:38:01;;;;;;;3.15;2.95;;;7.10;99.90;;;;;;5058014;28;20202;-79
2022/01/10 08:40:29;;;;;;;2.88;2.60;;;7.50;99.90;;;;;;5056284;28;20309;-79
2022/01/10 08:42:56;;;;;;;3.38;3.17;;;7.90;99.90;;;;;;5057985;28;20199;-80
2022/01/10 08:45:24;;;;;;;4.57;4.18;;;8.20;99.90;;;;;;5058625;28;20774;-79
2022/01/10 08:47:51;;;;;;;4.35;3.95;;;8.30;99.90;;;;;;5058999;28;20205;-79
2022/01/10 08:50:18;;;;;;;3.25;2.92;;;8.40;99.90;;;;;;5057753;28;20253;-80
2022/01/10 08:52:46;;;;;;;3.75;3.47;;;8.40;99.90;;;;;;5062724;28;20252;-79
2022/01/10 08:55:13;;;;;;;4.00;3.55;;;8.40;99.90;;;;;;5053342;28;20223;-81
2022/01/10 08:57:42;;;;;;;3.92;3.63;;;8.40;99.90;;;;;;5057479;28;20211;-79
2022/01/10 09:00:10;;;;;;;3.55;3.28;;;8.40;99.90;;;;;;5048301;28;20643;-78
2022/01/10 09:02:37;;;;;;;3.60;3.30;;;8.40;99.90;;;;;;5033251;28;20598;-82
2022/01/10 09:05:05;;;;;;;3.42;3.08;;;8.60;99.90;;;;;;5037595;28;20227;-79
2022/01/10 09:07:34;;;;;;;3.55;3.33;;;9.00;99.90;;;;;;5034642;28;20549;-78
2022/01/10 09:10:01;;;;;;;3.80;3.50;;;9.30;99.90;;;;;;5035465;28;20199;-79
2022/01/10 09:12:28;;;;;;;3.85;3.55;;;9.60;99.90;;;;;;5036798;28;20290;-81
2022/01/10 09:14:57;;;;;;;3.03;2.83;;;10.00;99.90;;;;;;5033323;28;20195;-80
2022/01/10 09:17:24;;;;;;;3.33;3.13;;;10.40;99.90;;;;;;5037066;28;20214;-80
2022/01/10 09:19:51;;;;;;;4.80;3.85;;;10.70;99.40;;;;;;5038897;28;20207;-80
2022/01/10 09:22:18;;;;;;;4.18;3.78;;;11.10;98.70;;;;;;5037896;28;20270;-80
2022/01/10 09:24:46;;;;;;;3.60;3.30;;;12.30;97.40;;;;;;5039766;28;20219;-81
2022/01/10 09:27:14;;;;;;;3.15;2.95;;;13.50;93.10;;;;;;5037080;28;20310;-78
2022/01/10 09:29:42;;;;;;;3.33;2.60;;;14.60;88.70;;;;;;5040261;28;20881;-79
2022/01/10 09:32:10;;;;;;;2.72;2.53;;;15.70;85.30;;;;;;5040973;28;20250;-79
2022/01/10 09:34:37;;;;;;;2.35;2.25;;;16.60;77.90;;;;;;5039012;28;20218;-78
2022/01/10 09:37:05;;;;;;;2.35;2.25;;;17.10;74.90;;;;;;5035442;28;20296;-80
2022/01/10 09:39:32;;;;;;;2.40;2.20;;;18.00;70.50;;;;;;5032436;28;20727;-80
2022/01/10 09:41:59;;;;;;;2.58;2.38;;;18.40;66.40;;;;;;5034147;28;20673;-80
2022/01/10 09:44:27;;;;;;;2.45;2.25;;;18.20;65.50;;;;;;5037705;28;20219;-81
2022/01/10 09:46:55;;;;;;;2.40;2.20;;;18.10;64.60;;;;;;5056149;28;20218;-80
2022/01/10 09:49:23;;;;;;;2.63;2.42;;;17.80;66.70;;;;;;5054774;28;20255;-79
2022/01/10 09:51:50;;;;;;;2.30;2.10;;;17.50;65.10;;;;;;5076529;28;20307;-85
2022/01/10 09:54:18;;;;;;;1.90;1.80;;;17.10;65.20;;;;;;5085082;28;20186;-87
2022/01/10 09:56:47;;;;;;;3.13;2.33;;;16.70;67.00;;;;;;5089216;28;20214;-85
2022/01/10 09:59:15;;;;;;;2.72;2.53;;;16.10;66.90;;;;;;5085401;28;20272;-85
2022/01/10 10:01:43;;;;;;;3.08;2.58;;;15.40;65.40;;;;;;5088443;28;20218;-86
2022/01/10 10:04:12;;;;;;;2.67;2.47;;;14.70;70.80;;;;;;5087587;28;20750;-86
2022/01/10 10:06:41;;;;;;;2.72;2.53;;;13.50;71.80;;;;;;5079122;28;20218;-84
2022/01/10 10:09:09;;;;;;;2.42;2.22;;;12.90;76.40;;;;;;5073841;28;20228;-83
2022/01/10 10:11:42;;;;;;;3.60;3.30;;;12.30;78.00;;;;;;5080453;28;20214;-85
2022/01/10 10:14:10;;;;;;;4.00;2.83;;;11.60;78.40;;;;;;5074787;28;20221;-84
2022/01/10 10:16:41;;;;;;;4.53;2.58;;;11.20;82.50;;;;;;5075154;28;20222;-88
2022/01/10 10:19:08;;;;;;;2.90;2.70;;;11.10;82.70;;;;;;5077360;28;20201;-85
2022/01/10 10:21:36;;;;;;;3.10;2.85;;;11.10;82.90;;;;;;5066531;28;20219;-86
2022/01/10 10:24:05;;;;;;;2.78;2.58;;;11.30;85.50;;;;;;5081955;28;20213;-85
2022/01/10 10:26:33;;;;;;;3.45;2.53;;;11.60;85.20;;;;;;5075632;28;20277;-86
2022/01/10 10:29:01;;;;;;;2.88;2.60;;;11.80;83.70;;;;;;5077060;28;20202;-85
2022/01/10 10:31:32;;;;;;;2.80;2.60;;;11.80;83.30;;;;;;5077249;28;20226;-85
2022/01/10 10:34:02;;;;;;;3.15;2.20;;;11.40;82.30;;;;;;5072637;28;20288;-84
2022/01/10 10:36:31;;;;;;;2.63;2.20;;;11.20;82.60;;;;;;5077640;28;20228;-85
2022/01/10 10:39:00;;;;;;;2.50;2.30;;;10.90;84.50;;;;;;5069328;28;20226;-85
2022/01/10 10:41:28;;;;;;;2.58;2.33;;;10.80;85.90;;;;;;5077570;28;20220;-85
2022/01/10 10:43:55;;;;;;;2.30;2.20;;;10.90;87.80;;;;;;5070162;28;20214;-83
2022/01/10 10:46:27;;;;;;;2.10;2.00;;;11.20;86.60;;;;;;5071934;28;20225;-84
2022/01/10 10:48:59;;;;;;;3.47;2.50;;;11.80;88.00;;;;;;5073571;28;20293;-83
2022/01/10 10:51:28;;;;;;;2.38;2.28;;;12.00;86.50;;;;;;5075004;28;20223;-84
2022/01/10 10:54:02;;;;;;;2.42;2.22;;;12.10;86.30;;;;;;5066941;28;20253;-84
2022/01/10 10:56:35;;;;;;;3.25;2.95;;;12.30;83.50;;;;;;5069807;28;20225;-83
2022/01/10 10:59:03;;;;;;;2.70;2.50;;;12.10;83.50;;;;;;5063090;28;20233;-83
2022/01/10 11:01:30;;;;;;;3.58;2.20;;;11.70;82.30;;;;;;5057028;28;20229;-84
2022/01/10 11:03:57;;;;;;;2.67;2.25;;;11.70;82.30;;;;;;5061912;28;20226;-84
2022/01/10 11:06:26;;;;;;;2.05;1.95;;;11.90;83.30;;;;;;5068875;28;20221;-83
2022/01/10 11:08:54;;;;;;;2.45;2.33;;;12.20;84.50;;;;;;5061500;28;20715;-82
2022/01/10 11:11:21;;;;;;;3.58;2.28;;;12.50;82.70;;;;;;5067829;28;20214;-84
2022/01/10 11:13:51;;;;;;;3.97;3.08;;;12.20;85.90;;;;;;5067056;28;20213;-83
2022/01/10 11:16:19;;;;;;;4.13;2.90;;;11.80;89.50;;;;;;5063815;28;20214;-82
2022/01/10 11:18:46;;;;;;;3.10;2.80;;;11.70;90.00;;;;;;5064636;28;20656;-82
2022/01/10 11:21:14;;;;;;;4.35;2.65;;;11.40;88.90;;;;;;5061522;28;20278;-83
2022/01/10 11:23:44;;;;;;;4.38;3.47;;;11.10;91.00;;;;;;5061849;28;20641;-82
2022/01/10 11:26:12;;;;;;;2.83;2.63;;;10.90;91.60;;;;;;5058352;28;20280;-79
2022/01/10 11:28:54;;;;;;;4.18;2.33;;;10.80;90.70;;;;;;5057059;28;20198;-81
2022/01/10 11:31:24;;;;;;;2.05;1.95;;;10.80;87.80;;;;;;5056630;28;20427;-80
2022/01/10 11:33:53;;;;;;;2.38;2.13;;;11.30;86.90;;;;;;5055407;28;20198;-79
2022/01/10 11:36:23;;;;;;;2.50;2.30;;;11.30;84.40;;;;;;5058408;28;20268;-79
2022/01/10 11:38:51;;;;;;;2.53;1.92;;;11.20;83.90;;;;;;5060318;28;20649;-80
2022/01/10 11:41:21;;;;;;;3.20;2.33;;;11.40;84.60;;;;;;5057389;28;20222;-82
2022/01/10 11:43:57;;;;;;;2.45;2.25;;;11.30;83.70;;;;;;5064266;28;20194;-80
2022/01/10 11:46:27;;;;;;;2.97;2.03;;;11.10;83.90;;;;;;5058736;28;20283;-80
2022/01/10 11:49:00;;;;;;;2.25;2.15;;;11.10;82.20;;;;;;5060233;28;20213;-82
2022/01/10 11:51:31;;;;;;;2.47;2.00;;;11.40;83.40;;;;;;5058568;28;20286;-79
2022/01/10 11:54:10;;;;;;;2.05;1.95;;;11.50;81.60;;;;;;5060535;28;20692;-82
2022/01/10 11:56:39;;;;;;;1.85;1.75;;;11.40;82.30;;;;;;5055164;28;20225;-80
2022/01/10 11:59:15;;;;;;;3.35;2.30;;;11.60;81.60;;;;;;5057720;28;20202;-80
2022/01/10 12:01:44;;;;;;;2.17;1.85;;;11.80;81.70;;;;;;5056810;28;20263;-80
2022/01/10 12:04:11;;;;;;;2.70;2.50;;;11.80;81.30;;;;;;5053897;28;20263;-81
2022/01/10 12:06:39;;;;;;;2.45;1.88;;;11.90;81.30;;;;;;5048114;28;20233;-78
2022/01/10 12:09:07;;;;;;;2.03;1.92;;;11.80;80.40;;;;;;5038542;28;20219;-79
2022/01/10 12:11:37;;;;;;;2.03;1.85;;;11.90;78.30;;;;;;5038353;28;20223;-79
2022/01/10 12:14:06;;;;;;;2.30;2.20;;;12.00;79.60;;;;;;5038308;28;20306;-80
2022/01/10 12:16:37;;;;;;;2.13;2.03;;;11.80;79.70;;;;;;5040445;28;20243;-81
2022/01/10 12:19:04;;;;;;;2.38;1.90;;;11.30;81.50;;;;;;5040809;28;20226;-78
2022/01/10 12:21:32;;;;;;;1.80;1.70;;;10.80;82.20;;;;;;5039909;28;20215;-81
2022/01/10 12:24:00;;;;;;;2.00;1.90;;;10.30;83.20;;;;;;5034788;28;20215;-79
2022/01/10 12:26:28;;;;;;;2.30;1.83;;;10.00;83.40;;;;;;5036462;28;21865;-79
2022/01/10 12:28:58;;;;;;;2.60;2.40;;;9.80;84.80;;;;;;5029991;28;20204;-79
2022/01/10 12:31:26;;;;;;;2.58;2.20;;;9.50;85.30;;;;;;5035796;28;20234;-78
2022/01/10 12:33:56;;;;;;;2.03;1.90;;;9.30;85.80;;;;;;5036113;28;20219;-81
2022/01/10 12:36:25;;;;;;;1.85;1.75;;;9.10;86.10;;;;;;5034265;28;20268;-79
2022/01/10 12:38:55;;;;;;;2.15;1.98;;;9.10;86.50;;;;;;5031121;28;20452;-79
2022/01/10 12:41:22;;;;;;;1.83;1.73;;;9.10;85.20;;;;;;5029142;28;20211;-78
2022/01/10 12:43:50;;;;;;;1.90;1.80;;;9.00;86.60;;;;;;5028744;28;20215;-80
2022/01/10 12:46:19;;;;;;;2.28;2.10;;;9.00;88.20;;;;;;5033994;28;20282;-79
2022/01/10 12:48:48;;;;;;;2.63;2.28;;;9.00;88.70;;;;;;5052439;28;20202;-79
2022/01/10 12:51:18;;;;;;;2.65;2.45;;;9.10;88.80;;;;;;5048851;28;21004;-79
2022/01/10 12:53:51;;;;;;;2.50;2.30;;;9.50;87.50;;;;;;5048597;28;20754;-79
2022/01/10 12:56:21;;;;;;;2.25;1.80;;;9.80;86.30;;;;;;5054164;28;20218;-79
2022/01/10 12:58:49;;;;;;;2.28;2.10;;;9.60;87.00;;;;;;5046396;28;20779;-81
2022/01/10 13:01:17;;;;;;;2.10;2.00;;;9.60;87.30;;;;;;5048271;28;20226;-80
2022/01/10 13:03:49;;;;;;;2.25;2.15;;;9.50;87.10;;;;;;5048594;28;20222;-80